Time;durP1;ratioP1;P1;durP2;ratioP2;P2;SDS_P1;SDS_P2;PMS_P1;PMS_P2;Temp;Humidity;BMP_temperature;BMP_pressure;BME280_temperature;BME280_humidity;BME280_pressure;Samples;Min_cycle;Max_cycle;Signal;HPM_P1;HPM_P2
2022/11/08 00:01:35;;;;;;;;;;;13.30;99.90;13.50;99369.00;;;;349082;27;85518;-95
2022/11/08 00:01:47;;;;;;;;;;;13.30;99.90;13.60;99372.00;;;;347768;28;83425;-96
2022/11/08 00:01:59;;;;;;;;;;;13.30;99.90;13.60;99377.00;;;;348982;27;85291;-96
2022/11/08 00:02:21;;;;;;;;;;;13.20;99.90;13.60;99368.00;;;;349294;27;82505;-96
2022/11/08 00:02:33;;;;;;;;;;;13.30;99.90;13.60;99372.00;;;;346312;28;86540;-96
2022/11/08 00:02:45;;;;;;;;;;;13.30;99.90;13.60;99367.00;;;;349147;27;82444;-96
2022/11/08 00:02:58;;;;;;;;;;;13.30;99.90;13.60;99363.00;;;;350439;27;85441;-96
2022/11/08 00:03:09;;;;;;;;;;;13.30;99.90;13.60;99365.00;;;;347972;28;82495;-96
2022/11/08 00:03:22;;;;;;;;;;;13.30;99.90;13.70;99368.00;;;;349041;27;87596;-96
2022/11/08 00:03:34;;;;;;;;;;;13.30;99.90;13.70;99367.00;;;;346217;28;83104;-96
2022/11/08 00:03:49;;;;;;;;;;;13.30;99.90;13.70;99367.00;;;;348781;27;86326;-95
2022/11/08 00:04:03;;;;;;;;;;;13.30;99.90;13.70;99359.00;;;;346515;28;83180;-96
2022/11/08 00:04:16;;;;;;;;;;;13.30;99.90;13.70;99364.00;;;;347499;28;86253;-96
2022/11/08 00:04:29;;;;;;;;;;;13.30;99.90;13.60;99368.00;;;;348009;27;82439;-96
2022/11/08 00:04:40;;;;;;;;;;;13.30;99.90;13.60;99363.00;;;;347986;28;87888;-96
2022/11/08 00:04:52;;;;;;;;;;;13.30;99.90;13.60;99368.00;;;;345452;28;82329;-96
2022/11/08 00:13:57;;;;;;;;;;;13.30;99.90;13.60;99370.00;;;;343619;28;83381;-96
2022/11/08 00:14:09;;;;;;;;;;;13.30;99.90;13.60;99365.00;;;;348921;27;86593;-96
2022/11/08 00:14:21;;;;;;;;;;;13.20;99.90;13.60;99351.00;;;;349572;27;83470;-96
2022/11/08 00:14:32;;;;;;;;;;;13.30;99.90;13.50;99364.00;;;;346819;28;86018;-96
2022/11/08 00:14:47;;;;;;;;;;;13.20;99.90;13.50;99360.00;;;;349449;27;82303;-96
2022/11/08 00:15:00;;;;;;;;;;;13.30;99.90;13.50;99353.00;;;;349487;27;87530;-96
2022/11/08 00:15:12;;;;;;;;;;;13.20;99.90;13.50;99358.00;;;;346514;28;83528;-96
2022/11/08 00:15:24;;;;;;;;;;;13.20;99.90;13.60;99354.00;;;;347859;28;86010;-96
2022/11/08 00:15:37;;;;;;;;;;;13.20;99.90;13.60;99360.00;;;;347784;28;82416;-96
2022/11/08 00:15:49;;;;;;;;;;;13.20;99.90;13.60;99351.00;;;;346109;28;87982;-96
2022/11/08 00:16:01;;;;;;;;;;;13.20;99.90;13.50;99355.00;;;;345183;28;82473;-96
2022/11/08 00:16:13;;;;;;;;;;;13.20;99.90;13.50;99348.00;;;;346539;28;87281;-96
2022/11/08 00:16:26;;;;;;;;;;;13.20;99.90;13.50;99351.00;;;;349054;27;83466;-96
2022/11/08 00:16:37;;;;;;;;;;;13.20;99.90;13.40;99356.00;;;;349197;27;86108;-96
2022/11/08 00:16:49;;;;;;;;;;;13.20;99.90;13.40;99351.00;;;;345116;28;83309;-96
2022/11/08 00:17:01;;;;;;;;;;;13.20;99.90;13.40;99358.00;;;;346279;28;87769;-96
2022/11/08 00:17:15;;;;;;;;;;;13.20;99.90;13.50;99353.00;;;;349649;27;82561;-96
2022/11/08 00:17:27;;;;;;;;;;;13.20;99.90;13.60;99360.00;;;;345058;28;85819;-96
2022/11/08 00:17:39;;;;;;;;;;;13.20;99.90;13.60;99351.00;;;;347817;28;83402;-96
2022/11/08 00:17:52;;;;;;;;;;;13.20;99.90;13.60;99355.00;;;;349544;27;86595;-96
2022/11/08 00:18:04;;;;;;;;;;;13.20;99.90;13.60;99357.00;;;;346597;28;82432;-96
2022/11/08 00:18:16;;;;;;;;;;;13.20;99.90;13.60;99348.00;;;;349135;27;86977;-96
2022/11/08 00:18:28;;;;;;;;;;;13.20;99.90;13.60;99346.00;;;;347713;28;82886;-96
2022/11/08 00:18:40;;;;;;;;;;;13.20;99.90;13.60;99352.00;;;;347780;28;86261;-95
2022/11/08 00:18:52;;;;;;;;;;;13.20;99.90;13.60;99350.00;;;;346345;28;82395;-96
2022/11/08 00:19:04;;;;;;;;;;;13.20;99.90;13.60;99358.00;;;;349121;27;87731;-96
2022/11/08 00:19:16;;;;;;;;;;;13.30;99.90;13.50;99351.00;;;;349496;27;83389;-96
2022/11/08 00:19:27;;;;;;;;;;;13.20;99.90;13.50;99358.00;;;;347930;28;85614;-96
2022/11/08 00:19:40;;;;;;;;;;;13.20;99.90;13.50;99357.00;;;;349468;27;82462;-96
2022/11/08 00:19:53;;;;;;;;;;;13.20;99.90;13.50;99348.00;;;;347991;28;86285;-95
2022/11/08 00:20:05;;;;;;;;;;;13.20;99.90;13.40;99348.00;;;;348030;28;83414;-96
2022/11/08 00:20:17;;;;;;;;;;;13.20;99.90;13.50;99352.00;;;;349038;27;86420;-96
2022/11/08 00:20:29;;;;;;;;;;;13.20;99.90;13.40;99352.00;;;;347881;28;82389;-96
2022/11/08 00:20:41;;;;;;;;;;;13.20;99.90;13.40;99346.00;;;;346278;28;86778;-96
2022/11/08 00:20:53;;;;;;;;;;;13.20;99.90;13.40;99351.00;;;;348157;28;82338;-96
2022/11/08 00:21:05;;;;;;;;;;;13.20;99.90;13.40;99353.00;;;;347789;28;85374;-96
2022/11/08 00:21:17;;;;;;;;;;;13.20;99.90;13.40;99353.00;;;;348076;28;82448;-96
2022/11/08 00:21:28;;;;;;;;;;;13.10;99.90;13.40;99355.00;;;;350858;27;85139;-96
2022/11/08 00:21:40;;;;;;;;;;;13.20;99.90;13.30;99350.00;;;;348059;28;83379;-96
2022/11/08 00:21:52;;;;;;;;;;;13.10;99.90;13.40;99346.00;;;;343555;28;87520;-96
2022/11/08 00:22:04;;;;;;;;;;;13.20;99.90;13.40;99349.00;;;;348825;27;83335;-96
2022/11/08 00:22:16;;;;;;;;;;;13.20;99.90;13.40;99347.00;;;;348127;28;86479;-96
2022/11/08 00:22:30;;;;;;;;;;;13.20;99.90;13.40;99355.00;;;;345531;28;83448;-96
2022/11/08 00:22:42;;;;;;;;;;;13.10;99.90;13.30;99355.00;;;;345494;28;86041;-96
2022/11/08 00:22:54;;;;;;;;;;;13.20;99.90;13.30;99353.00;;;;346882;28;83357;-96
2022/11/08 00:23:06;;;;;;;;;;;13.10;99.90;13.20;99343.00;;;;345215;28;87497;-96
2022/11/08 00:23:17;;;;;;;;;;;13.10;99.90;13.30;99343.00;;;;346626;28;83417;-96
2022/11/08 00:23:30;;;;;;;;;;;13.10;99.90;13.30;99352.00;;;;346805;28;86292;-96
2022/11/08 00:23:44;;;;;;;;;;;13.10;99.90;13.30;99347.00;;;;343992;28;82376;-96
2022/11/08 00:23:56;;;;;;;;;;;13.10;99.90;13.30;99350.00;;;;347239;28;85963;-95
2022/11/08 00:24:08;;;;;;;;;;;13.10;99.90;13.40;99357.00;;;;345663;28;82523;-96
2022/11/08 00:24:20;;;;;;;;;;;13.10;99.90;13.40;99340.00;;;;348412;28;86731;-96
2022/11/08 00:24:33;;;;;;;;;;;13.10;99.90;13.40;99348.00;;;;349787;27;83495;-96
2022/11/08 00:24:45;;;;;;;;;;;13.10;99.90;13.30;99355.00;;;;348548;28;86171;-95
2022/11/08 00:24:57;;;;;;;;;;;13.10;99.90;13.30;99346.00;;;;350195;27;83403;-96
2022/11/08 00:25:09;;;;;;;;;;;13.10;99.90;13.30;99349.00;;;;345670;28;86563;-96
2022/11/08 00:25:21;;;;;;;;;;;13.00;99.90;13.30;99363.00;;;;345919;28;82577;-96
2022/11/08 00:25:33;;;;;;;;;;;13.00;99.90;13.30;99356.00;;;;347158;28;85507;-96
2022/11/08 00:25:45;;;;;;;;;;;13.00;99.90;13.30;99355.00;;;;345930;28;82361;-96
2022/11/08 00:25:57;;;;;;;;;;;13.00;99.90;13.30;99350.00;;;;344876;28;86304;-96
2022/11/08 00:26:09;;;;;;;;;;;13.00;99.90;13.30;99351.00;;;;347293;28;82499;-96
2022/11/08 00:26:21;;;;;;;;;;;13.00;99.90;13.20;99354.00;;;;349984;27;85913;-96
2022/11/08 00:26:33;;;;;;;;;;;13.00;99.90;13.20;99357.00;;;;347368;28;82511;-96
2022/11/08 00:26:45;;;;;;;;;;;13.00;99.90;13.20;99360.00;;;;345900;28;88140;-96
2022/11/08 00:26:57;;;;;;;;;;;13.00;99.90;13.20;99361.00;;;;351070;27;82372;-96
2022/11/08 00:27:14;;;;;;;;;;;13.00;99.90;13.20;99358.00;;;;351159;27;87611;-96
2022/11/08 00:27:26;;;;;;;;;;;13.00;99.90;13.20;99360.00;;;;346982;28;83510;-96
2022/11/08 00:27:38;;;;;;;;;;;13.00;99.90;13.20;99360.00;;;;348200;27;87310;-96
2022/11/08 00:27:50;;;;;;;;;;;13.00;99.90;13.20;99351.00;;;;349905;27;83317;-96
2022/11/08 00:28:02;;;;;;;;;;;13.00;99.90;13.20;99347.00;;;;347136;28;86515;-96
2022/11/08 00:28:14;;;;;;;;;;;12.90;99.90;13.20;99352.00;;;;347098;28;82332;-96
2022/11/08 00:28:26;;;;;;;;;;;13.00;99.90;13.30;99359.00;;;;346873;28;87222;-96
2022/11/08 00:28:38;;;;;;;;;;;12.90;99.90;13.30;99353.00;;;;347323;28;82428;-96
2022/11/08 00:28:50;;;;;;;;;;;13.00;99.90;13.30;99355.00;;;;347089;28;86453;-96
2022/11/08 00:29:01;;;;;;;;;;;13.00;99.90;13.30;99355.00;;;;347990;28;82504;-96
2022/11/08 00:29:14;;;;;;;;;;;13.00;99.90;13.30;99345.00;;;;347708;28;87416;-96
2022/11/08 00:29:25;;;;;;;;;;;12.90;99.90;13.30;99346.00;;;;346391;28;83470;-95
2022/11/08 00:29:37;;;;;;;;;;;12.90;99.90;13.30;99359.00;;;;345070;28;86771;-96
2022/11/08 00:29:49;;;;;;;;;;;13.00;99.90;13.30;99355.00;;;;345496;28;83381;-96
2022/11/08 00:30:01;;;;;;;;;;;13.00;99.90;13.30;99352.00;;;;348035;28;87633;-96
2022/11/08 00:30:13;;;;;;;;;;;13.00;99.90;13.30;99353.00;;;;348104;28;82835;-96
2022/11/08 00:30:25;;;;;;;;;;;13.00;99.90;13.30;99354.00;;;;348127;28;86529;-96
2022/11/08 00:30:37;;;;;;;;;;;12.90;99.90;13.30;99353.00;;;;346965;28;82451;-96
2022/11/08 00:30:49;;;;;;;;;;;13.00;99.90;13.30;99351.00;;;;345265;28;87763;-96
2022/11/08 00:31:05;;;;;;;;;;;12.90;99.90;13.30;99351.00;;;;349294;27;82523;-96
2022/11/08 00:31:16;;;;;;;;;;;13.00;99.90;13.30;99340.00;;;;347888;28;86534;-96
2022/11/08 00:31:28;;;;;;;;;;;13.00;99.90;13.40;99345.00;;;;346892;28;83390;-96
2022/11/08 00:31:40;;;;;;;;;;;13.00;99.90;13.40;99343.00;;;;347955;28;87518;-96
2022/11/08 00:31:52;;;;;;;;;;;13.00;99.90;13.40;99347.00;;;;346684;28;83373;-96
2022/11/08 00:32:05;;;;;;;;;;;13.00;99.90;13.40;99345.00;;;;345797;28;86327;-96
2022/11/08 00:32:21;;;;;;;;;;;13.00;99.90;13.50;99345.00;;;;347917;28;82400;-96
2022/11/08 00:32:33;;;;;;;;;;;13.00;99.90;13.50;99351.00;;;;346712;28;86159;-96
2022/11/08 00:32:45;;;;;;;;;;;13.00;99.90;13.40;99340.00;;;;345158;28;83351;-96
2022/11/08 00:32:57;;;;;;;;;;;13.00;99.90;13.50;99342.00;;;;347578;28;86763;-96
2022/11/08 00:33:09;;;;;;;;;;;13.00;99.90;13.40;99342.00;;;;350607;27;82618;-96
2022/11/08 00:33:20;;;;;;;;;;;13.00;99.90;13.40;99348.00;;;;347852;28;86671;-96
2022/11/08 00:33:32;;;;;;;;;;;13.00;99.90;13.40;99354.00;;;;349105;27;83386;-96
2022/11/08 00:33:44;;;;;;;;;;;13.00;99.90;13.50;99347.00;;;;347918;28;86624;-96
2022/11/08 00:33:56;;;;;;;;;;;13.10;99.90;13.50;99346.00;;;;345220;28;82460;-96
2022/11/08 00:34:07;;;;;;;;;;;13.10;99.90;13.50;99350.00;;;;347990;28;86572;-96
2022/11/08 00:34:19;;;;;;;;;;;13.10;99.90;13.50;99357.00;;;;346622;28;82548;-96
2022/11/08 00:34:32;;;;;;;;;;;13.10;99.90;13.50;99346.00;;;;349143;27;85848;-96
2022/11/08 00:34:44;;;;;;;;;;;13.10;99.90;13.40;99348.00;;;;347906;28;82464;-96
2022/11/08 00:34:56;;;;;;;;;;;13.10;99.90;13.50;99350.00;;;;343579;28;86393;-96
2022/11/08 00:35:08;;;;;;;;;;;13.10;99.90;13.50;99345.00;;;;348167;28;82325;-96
2022/11/08 00:35:20;;;;;;;;;;;13.10;99.90;13.50;99347.00;;;;344681;28;85477;-96
2022/11/08 00:35:31;;;;;;;;;;;13.10;99.90;13.50;99346.00;;;;347438;28;82591;-96
2022/11/08 00:35:43;;;;;;;;;;;13.10;99.90;13.60;99351.00;;;;347641;28;86428;-96
2022/11/08 00:35:57;;;;;;;;;;;13.10;99.90;13.60;99353.00;;;;345090;28;82444;-96
2022/11/08 00:36:09;;;;;;;;;;;13.10;99.90;13.60;99351.00;;;;344911;28;86128;-95
2022/11/08 00:36:21;;;;;;;;;;;13.10;99.90;13.50;99348.00;;;;349034;27;83419;-96
2022/11/08 00:36:33;;;;;;;;;;;13.20;99.90;13.50;99350.00;;;;349201;27;87424;-96
2022/11/08 00:36:45;;;;;;;;;;;13.20;99.90;13.50;99357.00;;;;347635;28;82580;-96
2022/11/08 00:36:57;;;;;;;;;;;13.20;99.90;13.60;99349.00;;;;346371;28;87519;-96
2022/11/08 00:37:09;;;;;;;;;;;13.10;99.90;13.60;99341.00;;;;346529;28;83363;-96
2022/11/08 00:37:21;;;;;;;;;;;13.10;99.90;13.60;99344.00;;;;344980;28;87055;-96
2022/11/08 00:37:33;;;;;;;;;;;13.20;99.90;13.60;99348.00;;;;346690;28;82572;-96
2022/11/08 00:37:45;;;;;;;;;;;13.20;99.90;13.60;99346.00;;;;347888;27;86499;-96
2022/11/08 00:37:57;;;;;;;;;;;13.20;99.90;13.60;99346.00;;;;348140;28;83203;-96
2022/11/08 00:38:08;;;;;;;;;;;13.20;99.90;13.60;99344.00;;;;346252;28;87410;-96
2022/11/08 00:38:20;;;;;;;;;;;13.20;99.90;13.70;99342.00;;;;346243;28;83365;-96
2022/11/08 00:38:32;;;;;;;;;;;13.20;99.90;13.70;99333.00;;;;346205;28;87361;-96
2022/11/08 00:38:44;;;;;;;;;;;13.20;99.90;13.70;99353.00;;;;346720;28;82485;-96
2022/11/08 00:38:56;;;;;;;;;;;13.20;99.90;13.70;99343.00;;;;347656;28;85427;-95
2022/11/08 00:39:08;;;;;;;;;;;13.20;99.90;13.70;99342.00;;;;346333;28;82580;-96
2022/11/08 00:39:20;;;;;;;;;;;13.20;99.90;13.70;99346.00;;;;343391;28;86413;-96
2022/11/08 00:39:32;;;;;;;;;;;13.20;99.90;13.70;99339.00;;;;346311;28;82495;-96
2022/11/08 00:39:44;;;;;;;;;;;13.30;99.90;13.70;99351.00;;;;348836;27;88083;-96
2022/11/08 00:39:56;;;;;;;;;;;13.20;99.90;13.70;99342.00;;;;347665;28;82494;-96
2022/11/08 00:40:08;;;;;;;;;;;13.30;99.90;13.80;99336.00;;;;346251;28;87645;-96
2022/11/08 00:40:20;;;;;;;;;;;13.30;99.90;13.80;99345.00;;;;344992;28;83412;-96
2022/11/08 00:40:32;;;;;;;;;;;13.30;99.90;13.80;99344.00;;;;347665;28;87543;-96
2022/11/08 00:40:43;;;;;;;;;;;13.30;99.90;13.80;99349.00;;;;344908;28;82482;-96
2022/11/08 00:40:55;;;;;;;;;;;13.40;99.90;13.70;99347.00;;;;345132;28;86713;-96
2022/11/08 00:41:08;;;;;;;;;;;13.40;99.90;13.80;99348.00;;;;345358;28;83408;-96
2022/11/08 00:41:19;;;;;;;;;;;13.40;99.90;13.80;99341.00;;;;347511;28;83888;-96
2022/11/08 00:41:31;;;;;;;;;;;13.40;99.90;13.80;99341.00;;;;349197;27;82522;-96
2022/11/08 00:41:43;;;;;;;;;;;13.40;99.90;13.80;99338.00;;;;346008;28;85951;-96
2022/11/08 00:41:55;;;;;;;;;;;13.40;99.90;13.80;99347.00;;;;346341;28;83332;-95
2022/11/08 00:42:06;;;;;;;;;;;13.40;99.90;13.80;99346.00;;;;347457;28;88255;-96
2022/11/08 00:42:18;;;;;;;;;;;13.40;99.90;13.80;99350.00;;;;347656;28;82595;-96
2022/11/08 00:42:30;;;;;;;;;;;13.40;99.90;13.80;99339.00;;;;344751;28;86320;-95
2022/11/08 00:42:42;;;;;;;;;;;13.40;99.90;13.80;99350.00;;;;349132;27;83345;-96
2022/11/08 00:42:54;;;;;;;;;;;13.40;99.90;13.80;99335.00;;;;349033;27;87646;-96
2022/11/08 00:43:05;;;;;;;;;;;13.40;99.90;13.80;99345.00;;;;346275;28;83376;-96
2022/11/08 00:43:17;;;;;;;;;;;13.40;99.90;13.70;99341.00;;;;346098;28;86354;-96
2022/11/08 00:43:29;;;;;;;;;;;13.40;99.90;13.80;99345.00;;;;346242;28;83401;-96
2022/11/08 00:43:41;;;;;;;;;;;13.40;99.90;13.80;99339.00;;;;343427;28;86825;-95
2022/11/08 00:43:53;;;;;;;;;;;13.40;99.90;13.80;99344.00;;;;347821;28;82512;-96
2022/11/08 00:44:05;;;;;;;;;;;13.40;99.90;13.80;99342.00;;;;350395;27;86542;-96
2022/11/08 00:44:16;;;;;;;;;;;13.40;99.90;13.70;99341.00;;;;346216;28;82527;-96
2022/11/08 00:44:28;;;;;;;;;;;13.40;99.90;13.70;99336.00;;;;344769;28;86632;-96
2022/11/08 00:44:40;;;;;;;;;;;13.40;99.90;13.70;99343.00;;;;347704;28;82440;-96
2022/11/08 00:44:52;;;;;;;;;;;13.40;99.90;13.70;99341.00;;;;346220;28;86601;-96
2022/11/08 00:45:04;;;;;;;;;;;13.40;99.90;13.80;99350.00;;;;347645;27;82467;-96
2022/11/08 00:45:16;;;;;;;;;;;13.40;99.90;13.80;99337.00;;;;347635;28;87702;-96
2022/11/08 00:45:28;;;;;;;;;;;13.40;99.90;13.70;99347.00;;;;346342;28;83331;-96
2022/11/08 00:45:39;;;;;;;;;;;13.40;99.90;13.80;99344.00;;;;344897;28;87726;-96
2022/11/08 00:45:51;;;;;;;;;;;13.40;99.90;13.80;99344.00;;;;346304;28;82499;-96
2022/11/08 00:46:03;;;;;;;;;;;13.40;99.90;13.80;99338.00;;;;347770;28;86525;-96
2022/11/08 00:46:14;;;;;;;;;;;13.40;99.90;13.80;99337.00;;;;347724;28;82452;-96
2022/11/08 00:46:26;;;;;;;;;;;13.40;99.90;13.80;99335.00;;;;346320;28;86748;-96
2022/11/08 00:46:40;;;;;;;;;;;13.40;99.90;13.80;99332.00;;;;346425;28;83243;-96
2022/11/08 00:46:51;;;;;;;;;;;13.40;99.90;13.90;99334.00;;;;346135;28;87002;-96
2022/11/08 00:47:03;;;;;;;;;;;13.50;99.90;13.80;99328.00;;;;346299;28;83335;-96
2022/11/08 00:47:15;;;;;;;;;;;13.40;99.90;13.80;99338.00;;;;347503;28;87596;-96
2022/11/08 00:47:27;;;;;;;;;;;13.50;99.90;13.80;99331.00;;;;346300;28;83409;-96
2022/11/08 00:47:39;;;;;;;;;;;13.50;99.90;13.80;99338.00;;;;344749;28;86711;-96
2022/11/08 00:47:50;;;;;;;;;;;13.50;99.90;13.80;99329.00;;;;346512;28;82510;-96
2022/11/08 00:48:02;;;;;;;;;;;13.50;99.90;13.70;99332.00;;;;346329;28;86607;-96
2022/11/08 00:48:14;;;;;;;;;;;13.40;99.90;13.70;99328.00;;;;347896;28;82549;-96
2022/11/08 00:48:27;;;;;;;;;;;13.50;99.90;13.70;99332.00;;;;347728;28;86124;-96
2022/11/08 00:48:38;;;;;;;;;;;13.40;99.90;13.80;99330.00;;;;349403;27;82543;-96
2022/11/08 00:48:50;;;;;;;;;;;13.40;99.90;13.80;99335.00;;;;349070;27;86442;-96
2022/11/08 00:49:02;;;;;;;;;;;13.40;99.90;13.80;99332.00;;;;343587;28;83483;-96
2022/11/08 00:49:14;;;;;;;;;;;13.40;99.90;13.80;99322.00;;;;347879;28;87252;-96
2022/11/08 00:49:26;;;;;;;;;;;13.40;99.90;13.80;99334.00;;;;343833;28;83316;-96
2022/11/08 00:49:38;;;;;;;;;;;13.40;99.90;13.80;99341.00;;;;346353;28;87596;-96
2022/11/08 00:49:50;;;;;;;;;;;13.40;99.90;13.80;99339.00;;;;348018;28;82425;-96
2022/11/08 00:50:02;;;;;;;;;;;13.40;99.90;13.80;99333.00;;;;347793;28;86405;-96
2022/11/08 00:50:14;;;;;;;;;;;13.40;99.90;13.80;99334.00;;;;346583;28;83330;-96
2022/11/08 00:50:26;;;;;;;;;;;13.40;99.90;13.80;99339.00;;;;348894;27;86623;-96
2022/11/08 00:50:38;;;;;;;;;;;13.40;99.90;13.80;99344.00;;;;347971;28;82526;-96
2022/11/08 00:50:51;;;;;;;;;;;13.40;99.90;13.80;99328.00;;;;346600;28;86296;-96
2022/11/08 00:51:05;;;;;;;;;;;13.40;99.90;13.90;99335.00;;;;347644;28;83255;-96
2022/11/08 00:51:16;;;;;;;;;;;13.50;99.90;13.90;99330.00;;;;346253;28;86209;-96
2022/11/08 00:51:29;;;;;;;;;;;13.50;99.90;13.90;99336.00;;;;345123;28;83477;-96
2022/11/08 00:51:41;;;;;;;;;;;13.50;99.90;13.80;99334.00;;;;346399;28;87459;-95
2022/11/08 00:51:53;;;;;;;;;;;13.50;99.90;13.80;99336.00;;;;349175;27;83419;-96
2022/11/08 00:52:05;;;;;;;;;;;13.50;99.90;13.80;99337.00;;;;349308;27;86198;-96
2022/11/08 00:52:17;;;;;;;;;;;13.50;99.90;13.80;99332.00;;;;347642;28;82490;-96
2022/11/08 00:52:28;;;;;;;;;;;13.50;99.90;13.80;99329.00;;;;347614;28;87696;-96
2022/11/08 00:52:40;;;;;;;;;;;13.50;99.90;13.80;99332.00;;;;346671;28;82475;-96
2022/11/08 00:52:52;;;;;;;;;;;13.50;99.90;13.80;99334.00;;;;346470;28;86534;-96
2022/11/08 00:53:04;;;;;;;;;;;13.50;99.90;13.80;99334.00;;;;346494;28;83137;-96
2022/11/08 00:53:16;;;;;;;;;;;13.50;99.90;13.80;99318.00;;;;346504;28;87549;-96
2022/11/08 00:53:28;;;;;;;;;;;13.50;99.90;13.90;99331.00;;;;349437;27;82431;-96
2022/11/08 00:53:40;;;;;;;;;;;13.50;99.90;13.90;99320.00;;;;347626;28;87613;-96
2022/11/08 00:53:52;;;;;;;;;;;13.50;99.90;13.90;99333.00;;;;346633;28;83398;-96
2022/11/08 00:54:05;;;;;;;;;;;13.50;99.90;13.90;99334.00;;;;348114;28;86032;-96
2022/11/08 00:54:18;;;;;;;;;;;13.50;99.90;13.90;99332.00;;;;346543;28;82583;-96
2022/11/08 00:54:30;;;;;;;;;;;13.50;99.90;13.90;99336.00;;;;345048;28;87642;-96
2022/11/08 00:54:42;;;;;;;;;;;13.50;99.90;13.90;99336.00;;;;346314;28;82526;-96
2022/11/08 00:54:54;;;;;;;;;;;13.50;99.90;13.90;99341.00;;;;345142;28;87519;-96
2022/11/08 00:55:07;;;;;;;;;;;13.50;99.90;13.90;99340.00;;;;349619;27;82523;-96
2022/11/08 00:55:19;;;;;;;;;;;13.50;99.90;13.90;99343.00;;;;347885;28;86411;-96
2022/11/08 00:55:31;;;;;;;;;;;13.50;99.90;13.90;99326.00;;;;345403;28;83288;-96
2022/11/08 00:55:43;;;;;;;;;;;13.50;99.90;13.90;99327.00;;;;347823;28;87243;-96
2022/11/08 00:56:00;;;;;;;;;;;13.50;99.90;13.90;99330.00;;;;347932;28;82437;-96
2022/11/08 00:56:12;;;;;;;;;;;13.60;99.90;13.90;99342.00;;;;346586;28;86381;-96
2022/11/08 00:56:24;;;;;;;;;;;13.60;99.90;13.90;99332.00;;;;347864;28;82217;-96
2022/11/08 00:56:36;;;;;;;;;;;13.60;99.90;13.90;99336.00;;;;344728;28;86888;-96
2022/11/08 00:56:48;;;;;;;;;;;13.60;99.90;13.90;99340.00;;;;346493;28;83401;-95
2022/11/08 00:57:00;;;;;;;;;;;13.60;99.90;13.90;99331.00;;;;347307;28;85238;-96
2022/11/08 00:57:11;;;;;;;;;;;13.60;99.90;14.00;99331.00;;;;350614;27;83311;-96
2022/11/08 00:57:23;;;;;;;;;;;13.60;99.90;13.90;99327.00;;;;349150;27;86879;-96
2022/11/08 00:57:55;;;;;;;;;;;13.60;99.90;13.90;99340.00;;;;346505;28;83395;-95
2022/11/08 00:58:11;;;;;;;;;;;13.60;99.90;13.90;99343.00;;;;349168;27;87561;-96
2022/11/08 00:58:24;;;;;;;;;;;13.60;99.90;13.90;99339.00;;;;345119;28;82570;-96
2022/11/08 00:58:40;;;;;;;;;;;13.60;99.90;13.90;99346.00;;;;347699;28;87457;-95
2022/11/08 00:58:52;;;;;;;;;;;13.60;99.90;13.90;99344.00;;;;346494;28;82446;-96
2022/11/08 00:59:05;;;;;;;;;;;13.60;99.90;13.90;99340.00;;;;345028;28;86606;-96
2022/11/08 00:59:18;;;;;;;;;;;13.60;99.90;13.90;99339.00;;;;345012;28;83185;-96
2022/11/08 00:59:30;;;;;;;;;;;13.60;99.90;13.90;99333.00;;;;347847;28;87439;-96
2022/11/08 00:59:42;;;;;;;;;;;13.60;99.90;13.90;99331.00;;;;348148;28;82584;-96
2022/11/08 00:59:54;;;;;;;;;;;13.60;99.90;13.90;99336.00;;;;344921;28;87337;-96
2022/11/08 01:00:06;;;;;;;;;;;13.60;99.90;13.90;99329.00;;;;347907;28;82515;-96
2022/11/08 01:00:18;;;;;;;;;;;13.60;99.90;14.00;99341.00;;;;344604;28;86782;-96
2022/11/08 01:00:31;;;;;;;;;;;13.60;99.90;14.00;99348.00;;;;348052;28;82464;-96
2022/11/08 01:00:45;;;;;;;;;;;13.60;99.90;13.90;99332.00;;;;348065;28;87808;-96
2022/11/08 01:00:57;;;;;;;;;;;13.60;99.90;14.00;99332.00;;;;347044;28;82426;-96
2022/11/08 01:01:13;;;;;;;;;;;13.60;99.90;14.00;99338.00;;;;346780;28;87755;-96
2022/11/08 01:01:25;;;;;;;;;;;13.60;99.90;14.00;99343.00;;;;348248;28;83283;-96
2022/11/08 01:01:38;;;;;;;;;;;13.60;99.90;14.10;99342.00;;;;345952;28;87002;-95
2022/11/08 01:01:50;;;;;;;;;;;13.60;99.90;14.10;99331.00;;;;348032;28;83386;-94
2022/11/08 01:02:03;;;;;;;;;;;13.60;99.90;14.10;99334.00;;;;348570;28;86782;-96
2022/11/08 01:02:15;;;;;;;;;;;13.60;99.90;14.10;99345.00;;;;344318;28;82416;-96
2022/11/08 01:02:27;;;;;;;;;;;13.60;99.90;14.10;99342.00;;;;346546;28;87318;-96
2022/11/08 01:02:39;;;;;;;;;;;13.60;99.90;14.10;99343.00;;;;346963;28;82281;-96
2022/11/08 01:03:17;;;;;;;;;;;13.70;99.90;14.10;99343.00;;;;345215;28;84506;-96
2022/11/08 01:03:24;;;;;;;;;;;13.70;99.90;14.10;99344.00;;;;346254;28;83458;-96
2022/11/08 01:03:36;;;;;;;;;;;13.70;99.90;14.10;99340.00;;;;345302;28;83897;-95
2022/11/08 01:03:48;;;;;;;;;;;13.70;99.90;14.10;99340.00;;;;347894;28;83420;-96
2022/11/08 01:04:00;;;;;;;;;;;13.70;99.90;14.10;99344.00;;;;347841;28;86622;-96
2022/11/08 01:04:16;;;;;;;;;;;13.70;99.90;14.10;99334.00;;;;345605;28;82493;-96
2022/11/08 01:04:29;;;;;;;;;;;13.70;99.90;14.10;99344.00;;;;344390;28;85506;-96
2022/11/08 01:04:41;;;;;;;;;;;13.70;99.90;14.10;99339.00;;;;345211;28;82325;-96
2022/11/08 01:04:53;;;;;;;;;;;13.70;99.90;14.00;99341.00;;;;343877;28;85904;-96
2022/11/08 01:05:06;;;;;;;;;;;13.70;99.90;14.00;99345.00;;;;343804;28;83506;-96
2022/11/08 01:05:18;;;;;;;;;;;13.70;99.90;14.00;99341.00;;;;347912;28;86099;-96
2022/11/08 01:05:30;;;;;;;;;;;13.70;99.90;14.00;99352.00;;;;348004;28;83222;-95
2022/11/08 01:05:42;;;;;;;;;;;13.70;99.90;14.00;99348.00;;;;346807;28;88064;-96
2022/11/08 01:05:55;;;;;;;;;;;13.70;99.90;14.10;99343.00;;;;348162;28;82505;-96
2022/11/08 01:06:09;;;;;;;;;;;13.70;99.90;14.10;99348.00;;;;346845;28;87742;-96
2022/11/08 01:06:22;;;;;;;;;;;13.70;99.90;14.00;99349.00;;;;349864;27;82514;-96
2022/11/08 01:06:35;;;;;;;;;;;13.70;99.90;14.00;99358.00;;;;348133;28;86499;-96
2022/11/08 01:06:47;;;;;;;;;;;13.70;99.90;14.00;99353.00;;;;345668;28;82520;-96
2022/11/08 01:07:02;;;;;;;;;;;13.70;99.90;14.10;99353.00;;;;345444;28;85567;-96
2022/11/08 01:07:14;;;;;;;;;;;13.70;99.90;14.10;99361.00;;;;348230;28;82495;-96
2022/11/08 01:07:26;;;;;;;;;;;13.70;99.90;14.10;99354.00;;;;346930;28;86443;-96
2022/11/08 01:07:38;;;;;;;;;;;13.70;99.90;14.10;99354.00;;;;347793;28;82392;-96
2022/11/08 01:07:49;;;;;;;;;;;13.70;99.90;14.10;99358.00;;;;345024;28;87395;-96
2022/11/08 01:08:01;;;;;;;;;;;13.70;99.90;14.10;99352.00;;;;348453;28;82548;-94
2022/11/08 01:08:13;;;;;;;;;;;13.80;99.90;14.10;99352.00;;;;348472;28;85790;-96
2022/11/08 01:08:27;;;;;;;;;;;13.70;99.90;14.10;99353.00;;;;349646;27;82454;-96
2022/11/08 01:08:41;;;;;;;;;;;13.80;99.90;14.20;99360.00;;;;346989;28;86088;-96
2022/11/08 01:08:55;;;;;;;;;;;13.80;99.90;14.20;99364.00;;;;345521;28;82566;-96
2022/11/08 01:09:15;;;;;;;;;;;13.80;99.90;14.20;99351.00;;;;349786;27;86256;-96
2022/11/08 01:09:27;;;;;;;;;;;13.80;99.90;14.20;99358.00;;;;348290;28;82304;-96
2022/11/08 01:09:39;;;;;;;;;;;13.80;99.90;14.20;99354.00;;;;348076;28;87972;-96
2022/11/08 01:09:51;;;;;;;;;;;13.80;99.90;14.20;99349.00;;;;346907;28;82300;-96
2022/11/08 01:10:04;;;;;;;;;;;13.80;99.90;14.20;99355.00;;;;349462;27;86838;-95
2022/11/08 01:10:16;;;;;;;;;;;13.80;99.90;14.20;99353.00;;;;350776;27;83477;-96
2022/11/08 01:10:28;;;;;;;;;;;13.90;99.90;14.20;99358.00;;;;348093;28;83382;-95
2022/11/08 01:10:43;;;;;;;;;;;13.90;99.90;14.20;99354.00;;;;346944;28;83179;-96
2022/11/08 01:10:54;;;;;;;;;;;13.90;99.90;14.30;99355.00;;;;349155;27;85479;-96
2022/11/08 01:11:08;;;;;;;;;;;13.90;99.90;14.30;99353.00;;;;349733;27;82356;-96
2022/11/08 01:11:21;;;;;;;;;;;13.90;99.90;14.30;99361.00;;;;348052;28;86710;-96
2022/11/08 01:11:33;;;;;;;;;;;13.90;99.90;14.20;99361.00;;;;349594;27;82459;-96
2022/11/08 01:11:46;;;;;;;;;;;13.90;99.90;14.20;99353.00;;;;348109;28;86554;-96
2022/11/08 01:11:59;;;;;;;;;;;13.90;99.90;14.20;99356.00;;;;346910;28;82517;-96